x

Diamond Shoals (41025) Wave Buoy

6:50 - Sun 28th Aug 2016 All times are EDT. -4 hours from GMT.

  • Sig Wave height 3.0ft
  • Swell Direction
  • Peak Period 15s
  • Average Period 6s
  • Wind
    11mph
  • Sea Temp 85°f
  • Aire Temp 83°f
  • Sea Pressure 1018.4mb
  • Diamond Shoals
  • Diamond Shoals

More Historic Weather Station data

Upgrade to MSW Pro to gain access to the past 30 days of data for over 8000 Wavebouys and Weather Stations around the globe.

Join Pro

Comparision Forecast

View Surf forecast
   
dom 08/28 6:50 3ft 15s 6s 11
mph
1018.4mb 85f 83f
5:50 3.5ft 15s 5s 9 11 mph 1018.2mb 85f 83f
4:50 3ft 15s 5s 11 13 mph 1018.2mb 85f 84f
3:50 3ft 8s 5s 11 13 mph 1018.8mb 85f 84f
2:50 2.5ft 8s 5s 11 16 mph 1019.4mb 85f 83f
1:50 2.5ft 8s 5s 11 13 mph 1019.9mb 85f 84f
12:50 2.5ft 8s 5s 11 13 mph 1020.4mb 85f 84f
11:50 2.5ft 8s 5s 11 13 mph 1020.6mb 85f 84f
10:50 2.5ft 8s 5s 9 11 mph 1020.4mb 85f 84f
9:50 2.5ft 8s 5s 9 11 mph 1019.9mb 85f 84f
8:50 3ft 8s 6s 9 11 mph 1019.5mb 85f 83f
7:50 3ft 8s 6s 9 11 mph 1019.4mb 84f 83f
6:50 3ft 8s 6s 4 7 mph 1019.2mb 84f 82f
5:50 3.5ft 9s 6s 7
mph
1018.8mb 84f 82f
4:50 3.5ft 9s 6s 7
mph
1018.6mb 84f 82f
3:50 2.5ft 8s 6s 4 7 mph 1018.8mb 84f 80f
2:50 3ft 9s 6s 2 4 mph 1019.4mb 84f 76f
1:50 3ft 9s 6s 13 18 mph 1019.5mb 84f 77f
12:50 3ft 9s 6s 7
mph
1019.6mb 84f 81f
sáb 08/27 11:50 3ft 9s 6s 2 4 mph 1019.7mb 85f 80f
10:50 3ft 9s 6s 9
mph
1019.9mb 84f 80f
9:50 2.5ft 8s 6s 9
mph
1019.1mb 85f 83f
8:50 2.5ft 9s 6s 9 11 mph 1018.5mb 85f 83f
7:50 2.5ft 9s 6s 9 11 mph 1018mb 85f 83f
6:50 2.5ft 9s 6s 9 11 mph 1017.9mb 85f 83f
5:50 3ft 9s 7s 9 11 mph 1018.1mb 85f 83f
4:50 3ft 8s 7s 7 9 mph 1018.5mb 85f 83f
2:50 2.5ft 10s 8s 7 9 mph 1019mb 85f 83f
1:50 3ft 10s 8s 7 9 mph 1019.2mb 85f 82f
12:50 2.5ft 9s 7s 7 9 mph 1019.4mb 85f 82f
11:50 2.5ft 10s 8s 7 9 mph 1019.7mb 85f 82f
10:50 2.5ft 10s 7s 7
mph
1019.7mb 85f 82f
9:50 2.5ft 10s 7s 7 9 mph 1019.9mb 85f 82f
8:50 2.5ft 11s 7s 9 11 mph 1019.5mb 85f 82f
7:50 2.5ft 10s 7s 7 11 mph 1019.5mb 85f 82f
6:50 2.5ft 11s 7s 4 7 mph 1019.2mb 85f 82f
5:50 2.5ft 10s 7s 4 7 mph 1019.1mb 85f 82f
4:50 2.5ft 10s 7s 4 7 mph 1018.7mb 85f 82f
3:50 2.5ft 8s 6s 4 9 mph 1018.7mb 85f 81f
2:50 2ft 10s 7s 7
mph
1018.8mb 85f 81f
1:50 2ft 8s 6s 7 9 mph 1018.8mb 85f 82f
12:50 2.5ft 7s 7s 7 9 mph 1018.6mb 85f 82f
vie 08/26 11:50 2ft 8s 7s 7 9 mph 1018.8mb 85f 82f
10:50 2ft 7s 6s 7
mph
1018.7mb 85f 82f
9:50 2.5ft 8s 7s 4 7 mph 1018.7mb 85f 82f
8:50 2ft 8s 6s 7 9 mph 1018.2mb 85f 82f
7:50 2ft 8s 6s 4 7 mph 1017.9mb 86f 82f
6:50 2.5ft 8s 6s 2 4 mph 1017.9mb 87f 83f
5:50 2.5ft 8s 6s  -  2 mph 1018.1mb 87f 85f
4:50 2.5ft 8s 6s  -  2 mph 1018.1mb 87f 83f
3:50 2.5ft 8s 7s  -  2 mph 1018.2mb 87f 83f
2:50 2.5ft 7s 6s  -  2 mph 1018.8mb 87f 84f
1:50 2.5ft 8s 6s 2 4 mph 1019.4mb 86f 82f
12:50 2.5ft 8s 6s  -  2 mph 1019.6mb 85f 82f
11:50 2.5ft 8s 6s 2 4 mph 1020.1mb 85f 81f
10:50 2.5ft 8s 6s 4 9 mph 1019.9mb 85f 81f
9:50 2.5ft 8s 6s 4 7 mph 1019.9mb 84f 82f
8:50 2.5ft 8s 6s 4 7 mph 1019.8mb 84f 82f
7:50 2.5ft 9s 6s 4 7 mph 1019.8mb 84f 82f
6:50 3ft 8s 6s 4 7 mph 1019.4mb 84f 81f
5:50 3ft 8s 6s 2 7 mph 1018.9mb 84f 80f
4:50 3.5ft 8s 7s 2 4 mph 1018.7mb 84f 80f
3:50 3ft 8s 7s 4 7 mph 1018.8mb 83f 80f
2:50 3.5ft 9s 7s 2 4 mph 1018.8mb 83f 80f
1:50 3.5ft 9s 6s 2 4 mph 1018.6mb 84f 80f
12:50 3.5ft 9s 6s 4 7 mph 1018.9mb 84f 81f
jue 08/25 11:50 3.5ft 8s 6s 7 9 mph 1019.1mb 84f 81f
10:50 3.5ft 9s 6s 4 7 mph 1019.5mb 84f 81f
9:50 3ft 9s 6s 4 9 mph 1019.6mb 84f 81f
8:50 3.5ft 9s 6s 4 7 mph 1019.9mb 84f 81f
7:50 3.5ft 9s 6s 4 7 mph 1019.5mb 84f 81f
6:50 3.5ft 9s 6s 4 7 mph 1019.1mb 84f 82f
5:50 3ft 9s 6s 7 11 mph 1019mb 85f 81f
4:50 3.5ft 9s 6s 7 11 mph 1018.9mb 85f 81f
3:50 3ft 9s 6s 7 9 mph 1019.5mb 85f 81f
2:50 3ft 9s 6s 7 9 mph 1020.3mb 85f 81f
1:50 3ft 10s 6s 7 9 mph 1021mb 85f 81f
12:50 3ft 10s 6s 7 9 mph 1021.5mb 85f 81f
11:50 2.5ft 10s 6s 7 11 mph 1021.7mb 84f 81f
10:50 2.5ft 10s 5s 7 9 mph 1021.9mb 84f 81f
9:50 2.5ft 10s 5s 9 11 mph 1021.8mb 84f 81f
8:50 2.5ft 10s 5s 11 13 mph 1021.4mb 84f 81f
7:50 2.5ft 10s 5s 11 13 mph 1021.1mb 84f 81f
6:50 2.5ft 10s 6s 7 11 mph 1021mb 84f 80f
5:50 2.5ft 10s 5s 7 9 mph 1020.7mb 84f 80f
4:50 3ft 11s 5s 7 9 mph 1020.4mb 84f 80f
3:50 3ft 11s 5s 9 13 mph 1020.5mb 84f 80f
2:50 3ft 11s 5s 11 13 mph 1020.8mb 84f 81f
1:50 3.5ft 11s 5s 13 16 mph 1021.3mb 84f 81f
12:50 3.5ft 11s 5s 13 18 mph 1021.7mb 84f 81f